createdAt,value
2022-11-09T00:00:54.207Z,9.38
2022-11-09T00:04:57.173Z,9.45
2022-11-09T00:09:06.806Z,9.63
2022-11-09T00:13:11.914Z,8.73
2022-11-09T00:17:15.472Z,9.43
2022-11-09T00:21:20.191Z,9.18
2022-11-09T00:25:23.123Z,8.98
2022-11-09T00:29:27.462Z,9.35
2022-11-09T00:33:30.475Z,9.90
2022-11-09T00:37:33.538Z,9.10
2022-11-09T00:41:36.434Z,9.13
2022-11-09T00:45:41.411Z,9.23
2022-11-09T00:49:44.320Z,8.73
2022-11-09T00:53:48.367Z,9.45
2022-11-09T00:57:52.091Z,8.43
2022-11-09T01:01:57.948Z,9.55
2022-11-09T01:06:01.293Z,7.65
2022-11-09T01:10:05.010Z,9.30
2022-11-09T01:14:08.017Z,9.07
2022-11-09T01:18:13.146Z,7.78
2022-11-09T01:22:16.131Z,8.93
2022-11-09T01:26:19.351Z,9.73
2022-11-09T01:30:22.469Z,8.60
2022-11-09T01:34:29.249Z,8.77
2022-11-09T01:38:32.550Z,9.65
2022-11-09T01:42:38.592Z,9.43
2022-11-09T01:46:51.257Z,9.07
2022-11-09T01:51:00.312Z,9.52
2022-11-09T01:55:11.712Z,9.18
2022-11-09T01:59:18.878Z,9.63
2022-11-09T02:03:26.392Z,9.65
2022-11-09T02:07:30.894Z,9.25
2022-11-09T02:11:37.746Z,9.73
2022-11-09T02:15:45.508Z,9.60
2022-11-09T02:19:49.138Z,9.23
2022-11-09T02:23:53.752Z,8.75
2022-11-09T02:27:57.008Z,9.07
2022-11-09T02:32:03.501Z,9.75
2022-11-09T02:36:07.152Z,9.32
2022-11-09T02:40:17.891Z,9.70
2022-11-09T02:44:21.148Z,9.32
2022-11-09T02:48:24.229Z,8.85
2022-11-09T02:52:27.271Z,9.40
2022-11-09T02:56:31.701Z,9.93
2022-11-09T03:00:35.909Z,9.05
2022-11-09T03:04:39.027Z,10.27
2022-11-09T03:08:42.806Z,9.95
2022-11-09T03:12:47.580Z,9.32
2022-11-09T03:16:51.223Z,9.02
2022-11-09T03:20:55.415Z,9.43
2022-11-09T03:24:58.414Z,8.95
2022-11-09T03:29:03.328Z,9.88
2022-11-09T03:33:10.147Z,9.45
2022-11-09T03:37:14.282Z,10.02
2022-11-09T03:41:18.252Z,9.38
2022-11-09T03:45:23.169Z,10.60
2022-11-09T03:49:26.096Z,10.73
2022-11-09T03:53:29.023Z,10.15
2022-11-09T03:57:32.189Z,10.68
2022-11-09T04:01:36.540Z,10.57
2022-11-09T04:05:39.537Z,12.23
2022-11-09T04:09:42.475Z,11.15
2022-11-09T04:13:45.401Z,13.20
2022-11-09T04:17:57.470Z,12.10
2022-11-09T04:22:00.413Z,13.38
2022-11-09T04:26:03.318Z,13.65
2022-11-09T04:30:07.303Z,13.63
2022-11-09T04:34:11.574Z,13.93
2022-11-09T04:38:15.853Z,13.90
2022-11-09T04:42:19.032Z,13.20
2022-11-09T04:46:22.402Z,14.73
2022-11-09T04:50:27.042Z,13.73
2022-11-09T04:54:30.247Z,13.07
2022-11-09T04:58:33.545Z,13.50
2022-11-09T05:02:36.507Z,13.75
2022-11-09T05:06:40.822Z,14.73
2022-11-09T05:10:43.766Z,14.13
2022-11-09T05:14:46.834Z,13.02
2022-11-09T05:18:50.113Z,13.30
2022-11-09T05:23:12.247Z,13.80
2022-11-09T05:27:15.593Z,13.68
2022-11-09T05:31:18.558Z,12.95
2022-11-09T05:35:23.901Z,13.10
2022-11-09T05:39:28.328Z,13.40
2022-11-09T05:43:31.271Z,13.15
2022-11-09T05:47:38.437Z,14.07
2022-11-09T05:51:41.429Z,13.73
2022-11-09T05:55:45.897Z,14.95
2022-11-09T05:59:49.113Z,13.32
2022-11-09T06:03:54.671Z,13.98
2022-11-09T06:08:03.511Z,14.13
2022-11-09T06:12:08.441Z,14.65
2022-11-09T06:16:11.612Z,13.07
2022-11-09T06:20:14.775Z,13.63
2022-11-09T06:24:17.654Z,12.98
2022-11-09T06:28:22.086Z,13.40
2022-11-09T06:32:25.201Z,13.45
2022-11-09T06:36:28.306Z,13.57
2022-11-09T06:40:31.628Z,13.27
2022-11-09T06:44:36.019Z,13.63
2022-11-09T06:48:39.261Z,13.63
2022-11-09T06:52:42.180Z,12.70
2022-11-09T06:56:45.160Z,12.77
2022-11-09T07:00:49.509Z,13.38
2022-11-09T07:04:53.322Z,13.15
2022-11-09T07:08:57.207Z,12.43
2022-11-09T07:13:00.432Z,12.65
2022-11-09T07:17:04.999Z,13.48
2022-11-09T07:21:13.825Z,12.45
2022-11-09T07:25:17.687Z,12.27
2022-11-09T07:29:20.562Z,11.93
2022-11-09T07:33:25.438Z,13.45
2022-11-09T07:37:28.716Z,12.10
2022-11-09T07:41:34.628Z,12.48
2022-11-09T07:45:38.361Z,12.18
2022-11-09T07:49:42.635Z,12.07
2022-11-09T07:53:45.572Z,11.13
2022-11-09T07:57:48.477Z,12.15
2022-11-09T08:01:51.512Z,12.35
2022-11-09T08:05:58.032Z,11.38
2022-11-09T08:10:00.986Z,10.43
2022-11-09T08:14:04.536Z,12.23
2022-11-09T08:18:09.357Z,12.32
2022-11-09T08:22:13.851Z,11.60
2022-11-09T08:26:17.745Z,11.70
2022-11-09T08:30:22.296Z,11.90
2022-11-09T08:34:25.550Z,11.27
2022-11-09T08:38:33.256Z,10.95
2022-11-09T08:42:36.333Z,11.23
2022-11-09T08:46:41.367Z,10.90
2022-11-09T08:50:44.717Z,10.45
2022-11-09T08:54:49.182Z,10.27
2022-11-09T08:58:52.256Z,10.30
2022-11-09T09:02:55.537Z,10.52
2022-11-09T09:07:00.280Z,10.60
2022-11-09T09:11:05.372Z,11.30
2022-11-09T09:15:09.185Z,10.82
2022-11-09T09:19:12.215Z,10.93
2022-11-09T09:23:16.996Z,11.43
2022-11-09T09:27:21.362Z,10.77
2022-11-09T09:31:24.294Z,11.43
2022-11-09T09:35:27.553Z,10.70
2022-11-09T09:39:30.595Z,10.18
2022-11-09T09:43:43.213Z,10.70
2022-11-09T09:47:54.311Z,10.45
2022-11-09T09:52:02.610Z,10.88
2022-11-09T09:56:12.064Z,11.30
2022-11-09T10:00:23.603Z,10.07
2022-11-09T10:04:36.173Z,10.45
2022-11-09T10:08:51.399Z,9.75
2022-11-09T10:13:15.824Z,10.45
2022-11-09T10:17:31.944Z,9.90
2022-11-09T10:21:43.547Z,10.23
2022-11-09T10:26:03.626Z,11.38
2022-11-09T10:30:15.341Z,10.30
2022-11-09T10:34:21.765Z,11.82
2022-11-09T10:38:30.262Z,10.75
2022-11-09T10:42:54.562Z,11.30
2022-11-09T10:47:17.846Z,11.25
2022-11-09T10:51:43.053Z,10.68
2022-11-09T10:56:20.360Z,10.35
2022-11-09T11:00:58.260Z,10.63
2022-11-09T11:05:31.973Z,10.48
2022-11-09T11:09:55.881Z,10.23
2022-11-09T11:14:23.500Z,10.07
2022-11-09T11:18:47.916Z,10.55
2022-11-09T11:23:15.636Z,10.27
2022-11-09T11:27:44.284Z,11.63
2022-11-09T11:32:11.613Z,10.68
2022-11-09T11:36:49.514Z,10.38
2022-11-09T11:41:32.821Z,9.68
2022-11-09T11:46:07.026Z,10.27
2022-11-09T11:50:36.545Z,10.50
2022-11-09T11:55:15.331Z,10.57
2022-11-09T12:00:05.395Z,11.15
2022-11-09T12:04:52.336Z,10.18
2022-11-09T12:14:09.144Z,10.95
2022-11-09T12:18:41.615Z,10.82
2022-11-09T12:23:22.258Z,11.07
2022-11-09T12:27:56.766Z,10.07
2022-11-09T12:32:28.941Z,10.60
2022-11-09T12:36:56.743Z,10.10
2022-11-09T12:41:23.783Z,10.35
2022-11-09T12:45:45.854Z,10.80
2022-11-09T12:50:13.191Z,9.82
2022-11-09T12:54:36.582Z,10.55
2022-11-09T13:20:00.350Z,9.73
2022-11-09T13:24:56.166Z,9.63
2022-11-09T13:29:27.295Z,9.57
2022-11-09T13:33:48.854Z,10.50
2022-11-09T13:38:17.984Z,10.30
2022-11-09T13:42:39.238Z,10.18
2022-11-09T13:47:00.748Z,10.18
2022-11-09T13:51:24.176Z,9.57
2022-11-09T13:55:47.049Z,8.50
2022-11-09T14:00:19.674Z,10.65
2022-11-09T14:04:42.355Z,10.38
2022-11-09T14:09:04.196Z,9.60
2022-11-09T14:13:51.550Z,9.57
2022-11-09T14:18:23.931Z,10.93
2022-11-09T14:22:45.560Z,9.55
2022-11-09T14:27:15.939Z,9.73
2022-11-09T14:31:45.787Z,9.40
2022-11-09T14:36:07.938Z,9.55
2022-11-09T14:40:31.580Z,9.18
2022-11-09T14:44:53.757Z,9.95
2022-11-09T14:49:24.705Z,10.52
2022-11-09T14:53:47.193Z,9.70
2022-11-09T14:58:14.350Z,9.05
2022-11-09T15:02:37.385Z,10.25
2022-11-09T15:07:03.840Z,9.80
2022-11-09T15:11:33.209Z,7.97
2022-11-09T15:15:56.154Z,9.70
2022-11-09T15:20:33.325Z,9.30
2022-11-09T15:24:56.295Z,9.48
2022-11-09T15:29:36.890Z,10.07
2022-11-09T15:34:00.876Z,9.50
2022-11-09T15:38:35.380Z,9.38
2022-11-09T15:42:59.127Z,8.75
2022-11-09T15:47:24.159Z,9.07
2022-11-09T15:51:46.089Z,9.80
2022-11-09T15:56:09.831Z,9.30
2022-11-09T16:00:32.658Z,8.85
2022-11-09T16:04:54.422Z,9.00
2022-11-09T16:09:16.459Z,9.40
2022-11-09T16:13:38.108Z,8.32
2022-11-09T16:18:01.590Z,9.27
2022-11-09T16:22:23.216Z,9.50
2022-11-09T16:26:45.745Z,10.00
2022-11-09T16:31:07.461Z,9.20
2022-11-09T16:35:30.376Z,11.63
2022-11-09T16:39:52.417Z,11.10
2022-11-09T16:44:16.140Z,10.48
2022-11-09T16:48:37.642Z,10.70
2022-11-09T16:53:00.307Z,12.85
2022-11-09T16:57:21.924Z,12.68
2022-11-09T17:01:43.580Z,11.02
2022-11-09T17:06:05.604Z,10.85
2022-11-09T17:10:28.878Z,11.98
2022-11-09T17:14:50.631Z,11.10
2022-11-09T17:19:14.363Z,12.27
2022-11-09T17:23:35.997Z,11.48
2022-11-09T17:27:58.979Z,11.15
2022-11-09T17:32:24.905Z,11.65
2022-11-09T17:37:03.690Z,9.40
2022-11-09T17:41:26.382Z,9.75
2022-11-09T17:45:49.210Z,9.40
2022-11-09T17:50:10.838Z,9.23
2022-11-09T17:54:36.670Z,9.43
2022-11-09T17:58:58.881Z,9.15
2022-11-09T18:03:21.942Z,9.13
2022-11-09T18:07:43.581Z,10.10
2022-11-09T18:12:05.449Z,9.18
2022-11-09T18:16:28.194Z,9.77
2022-11-09T18:20:52.011Z,8.90
2022-11-09T18:25:13.536Z,10.15
2022-11-09T18:29:34.816Z,10.05
2022-11-09T18:33:56.570Z,9.23
2022-11-09T18:38:20.319Z,9.63
2022-11-09T18:42:42.964Z,11.35
2022-11-09T18:47:05.824Z,11.57
2022-11-09T18:51:27.682Z,10.52
2022-11-09T18:55:51.075Z,10.80
2022-11-09T19:00:13.919Z,11.93
2022-11-09T19:04:36.357Z,11.52
2022-11-09T19:09:15.422Z,9.63
2022-11-09T19:13:38.939Z,10.63
2022-11-09T19:18:00.669Z,10.95
2022-11-09T19:22:22.309Z,10.02
2022-11-09T19:26:43.995Z,9.70
2022-11-09T19:31:07.187Z,9.70
2022-11-09T19:35:32.642Z,9.00
2022-11-09T19:39:55.675Z,8.02
2022-11-09T19:44:18.163Z,9.82
2022-11-09T19:48:44.883Z,9.25
2022-11-09T19:53:08.889Z,9.77
2022-11-09T19:57:30.911Z,11.02
2022-11-09T20:01:52.769Z,11.02
2022-11-09T20:06:15.938Z,10.70
2022-11-09T20:10:37.779Z,11.02
2022-11-09T20:14:59.873Z,11.23
2022-11-09T20:19:23.775Z,11.05
2022-11-09T20:23:48.441Z,10.50
2022-11-09T20:28:10.225Z,11.35
2022-11-09T20:32:32.412Z,10.82
2022-11-09T20:36:53.888Z,10.68
2022-11-09T20:41:18.742Z,11.20
2022-11-09T20:45:43.393Z,12.32
2022-11-09T20:50:05.427Z,10.02
2022-11-09T20:54:27.264Z,8.60
2022-11-09T20:58:50.981Z,9.85
2022-11-09T21:03:12.254Z,10.18
2022-11-09T21:07:33.896Z,11.07
2022-11-09T21:12:12.678Z,9.88
2022-11-09T21:16:35.701Z,8.68
2022-11-09T21:20:57.242Z,8.45
2022-11-09T21:25:36.274Z,8.77
2022-11-09T21:29:58.263Z,10.18
2022-11-09T21:34:21.036Z,9.95
2022-11-09T21:38:42.862Z,9.48
2022-11-09T21:43:04.329Z,10.05
2022-11-09T21:47:26.218Z,10.35
2022-11-09T21:51:49.123Z,11.02
2022-11-09T21:56:11.290Z,10.60
2022-11-09T22:00:32.935Z,8.80
2022-11-09T22:04:54.454Z,8.38
2022-11-09T22:09:19.536Z,8.82
2022-11-09T22:13:59.155Z,9.50
2022-11-09T22:18:34.591Z,9.88
2022-11-09T22:22:56.297Z,11.20
2022-11-09T22:27:19.356Z,9.68
2022-11-09T22:31:41.127Z,11.35
2022-11-09T22:36:04.536Z,11.15
2022-11-09T22:40:25.961Z,10.07
2022-11-09T22:44:49.064Z,10.95
2022-11-09T22:49:10.527Z,10.32
2022-11-09T22:53:32.653Z,10.68
2022-11-09T22:57:55.966Z,11.13
2022-11-09T23:02:19.362Z,9.82
2022-11-09T23:06:41.161Z,11.02
2022-11-09T23:11:03.114Z,10.98
2022-11-09T23:15:24.774Z,9.88
2022-11-09T23:19:47.876Z,10.60
2022-11-09T23:24:30.715Z,9.95
2022-11-09T23:28:52.798Z,10.00
2022-11-09T23:33:14.150Z,10.10
2022-11-09T23:37:36.948Z,10.13
2022-11-09T23:41:58.381Z,9.23
2022-11-09T23:46:20.132Z,9.38
2022-11-09T23:50:41.819Z,10.10
2022-11-09T23:55:04.962Z,9.57
2022-11-09T23:59:26.646Z,10.18
